createdAt,value
2019-01-04T00:01:47.049Z,82.46
2019-01-04T00:04:35.314Z,82.29
2019-01-04T00:07:23.730Z,82.07
2019-01-04T00:09:53.504Z,82.00
2019-01-04T00:12:22.690Z,81.93
2019-01-04T00:17:27.256Z,81.89
2019-01-04T00:19:56.566Z,81.82
2019-01-04T00:22:25.758Z,81.75
2019-01-04T00:24:55.350Z,81.69
2019-01-04T00:27:24.602Z,81.64
2019-01-04T00:30:12.946Z,81.55
2019-01-04T00:32:42.183Z,81.53
2019-01-04T00:35:11.380Z,81.39
2019-01-04T00:37:40.845Z,81.37
2019-01-04T00:40:10.194Z,81.27
2019-01-04T00:42:39.382Z,81.24
2019-01-04T00:45:09.079Z,81.16
2019-01-04T00:47:38.277Z,81.09
2019-01-04T00:50:08.379Z,80.87
2019-01-04T00:52:37.675Z,80.90
2019-01-04T00:55:44.933Z,80.66
2019-01-04T00:58:52.321Z,80.57
2019-01-04T01:01:59.615Z,80.48
2019-01-04T01:05:06.953Z,80.39
2019-01-04T01:08:14.295Z,80.32
2019-01-04T01:11:21.747Z,80.24
2019-01-04T01:14:29.039Z,80.23
2019-01-04T01:17:36.446Z,79.96
2019-01-04T01:20:43.717Z,79.84
2019-01-04T01:23:51.068Z,79.73
2019-01-04T01:27:07.809Z,79.73
2019-01-04T01:33:24.193Z,79.64
2019-01-04T01:36:31.447Z,79.47
2019-01-04T01:39:38.896Z,79.35
2019-01-04T01:46:00.011Z,79.10
2019-01-04T01:48:52.418Z,79.04
2019-01-04T01:52:00.086Z,79.06
2019-01-04T01:54:29.304Z,79.01
2019-01-04T01:56:58.525Z,78.91
2019-01-04T01:59:46.815Z,78.85
2019-01-04T02:02:16.011Z,78.79
2019-01-04T02:04:45.213Z,78.63
2019-01-04T02:07:14.546Z,78.48
2019-01-04T02:09:43.726Z,78.31
2019-01-04T02:12:13.045Z,78.19
2019-01-04T02:14:42.344Z,78.09
2019-01-04T02:17:11.563Z,78.03
2019-01-04T02:19:59.854Z,77.77
2019-01-04T02:22:29.062Z,77.70
2019-01-04T02:24:58.251Z,77.57
2019-01-04T02:27:27.592Z,77.61
2019-01-04T02:29:56.766Z,77.45
2019-01-04T02:32:25.972Z,77.46
2019-01-04T02:34:55.250Z,77.44
2019-01-04T02:37:24.488Z,77.41
2019-01-04T02:39:53.676Z,77.20
2019-01-04T02:42:41.894Z,76.93
2019-01-04T02:45:11.091Z,76.86
2019-01-04T02:47:40.303Z,76.67
2019-01-04T02:50:09.660Z,76.64
2019-01-04T02:52:38.882Z,76.53
2019-01-04T02:55:08.064Z,76.37
2019-01-04T02:57:38.081Z,75.95
2019-01-04T03:00:26.814Z,76.00
2019-01-04T03:02:56.470Z,75.94
2019-01-04T03:05:44.641Z,75.90
2019-01-04T03:08:14.106Z,75.98
2019-01-04T03:10:43.300Z,76.05
2019-01-04T03:13:12.595Z,75.89
2019-01-04T03:15:42.309Z,75.54
2019-01-04T03:18:11.493Z,75.17
2019-01-04T03:20:59.738Z,75.39
2019-01-04T03:23:28.930Z,75.50
2019-01-04T03:25:58.119Z,75.38
2019-01-04T03:28:46.443Z,75.42
2019-01-04T03:31:15.714Z,75.39
2019-01-04T03:33:44.890Z,75.42
2019-01-04T03:36:14.390Z,75.25
2019-01-04T03:38:43.566Z,75.18
2019-01-04T03:41:12.751Z,75.05
2019-01-04T03:43:42.182Z,75.20
2019-01-04T03:46:11.390Z,75.21
2019-01-04T03:48:40.959Z,75.15
2019-01-04T03:51:10.294Z,75.07
2019-01-04T03:53:39.469Z,74.85
2019-01-04T03:56:08.659Z,75.04
2019-01-04T04:01:12.481Z,74.83
2019-01-04T04:03:41.694Z,74.60
2019-01-04T04:06:10.899Z,74.41
2019-01-04T04:08:40.171Z,74.48
2019-01-04T04:11:09.408Z,74.34
2019-01-04T04:13:38.607Z,74.21
2019-01-04T04:16:07.981Z,73.83
2019-01-04T04:18:37.302Z,73.68
2019-01-04T04:21:06.526Z,73.60
2019-01-04T04:26:24.143Z,73.41
2019-01-04T04:28:53.339Z,73.60
2019-01-04T04:31:22.537Z,73.71
2019-01-04T04:36:27.179Z,73.35
2019-01-04T04:38:56.410Z,73.22
2019-01-04T04:41:25.607Z,73.06
2019-01-04T04:43:55.082Z,73.07
2019-01-04T04:46:24.322Z,72.85
2019-01-04T04:48:53.763Z,72.69
2019-01-04T04:51:23.396Z,72.69
2019-01-04T04:53:52.608Z,72.58
2019-01-04T04:59:10.338Z,72.17
2019-01-04T05:01:39.544Z,72.21
2019-01-04T05:04:08.911Z,72.12
2019-01-04T05:06:38.437Z,72.33
2019-01-04T05:09:26.991Z,72.33
2019-01-04T05:11:56.589Z,72.34
2019-01-04T05:14:25.804Z,72.37
2019-01-04T05:16:55.049Z,72.32
2019-01-04T05:19:24.401Z,72.12
2019-01-04T05:21:53.599Z,72.03
2019-01-04T05:24:22.786Z,72.04
2019-01-04T05:26:53.014Z,72.29
2019-01-04T05:29:22.215Z,72.03
2019-01-04T05:31:51.403Z,71.98
2019-01-04T05:34:20.787Z,72.11
2019-01-04T05:36:49.970Z,71.99
2019-01-04T05:39:19.175Z,71.91
2019-01-04T05:41:48.597Z,72.03
2019-01-04T05:44:17.796Z,72.05
2019-01-04T05:47:06.140Z,72.00
2019-01-04T05:49:36.016Z,71.99
2019-01-04T05:52:05.218Z,72.02
2019-01-04T05:57:22.897Z,72.10
2019-01-04T06:00:11.380Z,72.08
2019-01-04T06:02:40.649Z,72.04
2019-01-04T06:05:09.830Z,71.96
2019-01-04T06:10:14.719Z,72.08
2019-01-04T06:13:02.871Z,72.10
2019-01-04T06:15:51.157Z,72.17
2019-01-04T06:18:20.487Z,72.28
2019-01-04T06:20:49.859Z,72.27
2019-01-04T06:23:19.139Z,72.25
2019-01-04T06:25:48.390Z,72.18
2019-01-04T06:28:17.605Z,72.20
2019-01-04T06:31:05.973Z,72.28
2019-01-04T06:33:35.172Z,72.34
2019-01-04T06:36:04.605Z,72.35
2019-01-04T06:38:34.030Z,72.41
2019-01-04T06:41:03.266Z,72.48
2019-01-04T06:43:32.462Z,72.37
2019-01-04T06:46:01.881Z,72.28
2019-01-04T06:48:31.062Z,72.31
2019-01-04T06:51:00.278Z,72.27
2019-01-04T06:53:29.599Z,72.17
2019-01-04T06:56:00.642Z,72.20
2019-01-04T06:58:29.967Z,72.21
2019-01-04T07:00:59.199Z,72.28
2019-01-04T07:03:28.399Z,72.30
2019-01-04T07:05:57.672Z,72.32
2019-01-04T07:08:26.895Z,72.32
2019-01-04T07:10:56.124Z,72.33
2019-01-04T07:13:25.486Z,72.34
2019-01-04T07:15:54.723Z,72.23
2019-01-04T07:18:23.921Z,72.28
2019-01-04T07:20:53.466Z,72.16
2019-01-04T07:23:24.021Z,72.16
2019-01-04T07:25:54.089Z,72.19
2019-01-04T07:28:23.269Z,72.30
2019-01-04T07:30:52.529Z,72.32
2019-01-04T07:33:21.873Z,72.39
2019-01-04T07:35:51.049Z,72.44
2019-01-04T07:38:20.569Z,72.43
2019-01-04T07:43:38.261Z,72.58
2019-01-04T07:46:07.854Z,72.62
2019-01-04T07:48:37.054Z,72.69
2019-01-04T07:51:06.975Z,72.77
2019-01-04T07:53:36.597Z,72.83
2019-01-04T07:58:54.144Z,72.98
2019-01-04T08:01:23.330Z,72.97
2019-01-04T08:03:52.504Z,73.00
2019-01-04T08:06:22.018Z,73.16
2019-01-04T08:08:51.390Z,73.26
2019-01-04T08:11:20.590Z,73.29
2019-01-04T08:13:50.018Z,73.38
2019-01-04T08:16:19.210Z,73.41
2019-01-04T08:18:48.433Z,73.49
2019-01-04T08:21:17.750Z,73.67
2019-01-04T08:23:47.029Z,73.83
2019-01-04T08:26:16.331Z,74.02
2019-01-04T08:28:45.689Z,74.39
2019-01-04T08:31:14.884Z,74.66
2019-01-04T08:33:44.570Z,74.82
2019-01-04T08:36:13.893Z,75.12
2019-01-04T08:38:43.098Z,75.41
2019-01-04T08:41:12.288Z,75.70
2019-01-04T08:43:41.639Z,76.21
2019-01-04T08:46:10.830Z,76.30
2019-01-04T08:48:40.020Z,76.87
2019-01-04T08:51:09.356Z,77.14
2019-01-04T08:54:16.591Z,77.72
2019-01-04T08:57:05.080Z,78.05
2019-01-04T08:59:34.266Z,78.54
2019-01-04T09:02:03.467Z,78.87
2019-01-04T09:04:33.053Z,79.06
2019-01-04T09:07:02.252Z,79.56
2019-01-04T09:09:31.453Z,79.79
2019-01-04T09:12:00.874Z,79.82
2019-01-04T09:14:30.082Z,80.22
2019-01-04T09:17:00.109Z,80.63
2019-01-04T09:19:30.390Z,80.84
2019-01-04T09:21:59.949Z,81.19
2019-01-04T09:24:29.238Z,81.24
2019-01-04T09:26:58.830Z,81.33
2019-01-04T09:29:28.015Z,81.36
2019-01-04T09:31:57.234Z,81.75
2019-01-04T09:34:26.599Z,82.07
2019-01-04T09:37:14.777Z,82.25
2019-01-04T09:39:44.094Z,82.24
2019-01-04T09:42:33.283Z,82.12
2019-01-04T09:45:02.931Z,82.39
2019-01-04T09:47:32.120Z,82.83
2019-01-04T09:50:01.425Z,82.68
2019-01-04T09:52:30.920Z,82.80
2019-01-04T09:55:00.156Z,82.76
2019-01-04T09:57:29.331Z,83.08
2019-01-04T09:59:58.819Z,83.06
2019-01-04T10:02:28.008Z,83.03
2019-01-04T10:04:57.232Z,82.97
2019-01-04T10:07:26.928Z,83.10
2019-01-04T10:09:56.125Z,83.09
2019-01-04T10:12:25.351Z,83.15
2019-01-04T10:14:54.820Z,83.31
2019-01-04T10:17:24.009Z,83.50
2019-01-04T10:19:53.200Z,83.65
2019-01-04T10:22:22.823Z,84.10
2019-01-04T10:25:10.939Z,84.08
2019-01-04T10:27:40.402Z,84.03
2019-01-04T10:30:30.926Z,84.08
2019-01-04T10:36:01.924Z,84.09
2019-01-04T10:38:31.121Z,84.09
2019-01-04T10:41:00.317Z,84.18
2019-01-04T10:43:30.232Z,84.32
2019-01-04T10:45:59.417Z,84.50
2019-01-04T10:48:28.599Z,84.56
2019-01-04T10:50:58.149Z,84.68
2019-01-04T10:53:27.343Z,84.58
2019-01-04T10:55:56.530Z,84.70
2019-01-04T10:58:25.885Z,85.04
2019-01-04T11:00:55.094Z,84.86
2019-01-04T11:03:24.281Z,84.89
2019-01-04T11:05:53.929Z,84.76
2019-01-04T11:08:23.136Z,84.81
2019-01-04T11:10:52.356Z,84.79
2019-01-04T11:13:21.709Z,84.93
2019-01-04T11:15:50.897Z,84.96
2019-01-04T11:18:20.108Z,84.98
2019-01-04T11:20:49.900Z,85.12
2019-01-04T11:23:57.154Z,85.01
2019-01-04T11:26:50.518Z,85.13
2019-01-04T11:29:41.362Z,85.14
2019-01-04T11:32:48.742Z,85.13
2019-01-04T11:35:42.847Z,85.34
2019-01-04T11:38:43.196Z,85.57
2019-01-04T11:41:50.570Z,85.52
2019-01-04T11:44:58.000Z,85.66
2019-01-04T11:47:59.304Z,85.66
2019-01-04T11:51:07.206Z,85.62
2019-01-04T11:53:36.419Z,85.99
2019-01-04T11:56:05.634Z,86.12
2019-01-04T11:58:35.134Z,86.28
2019-01-04T12:01:04.410Z,86.24
2019-01-04T12:03:33.592Z,86.25
2019-01-04T12:06:02.928Z,86.32
2019-01-04T12:08:32.145Z,86.40
2019-01-04T12:11:01.326Z,86.47
2019-01-04T12:13:49.624Z,86.51
2019-01-04T12:16:18.832Z,86.57
2019-01-04T12:18:48.054Z,86.47
2019-01-04T12:21:17.612Z,86.36
2019-01-04T12:24:05.727Z,86.51
2019-01-04T12:26:35.222Z,86.58
2019-01-04T12:29:04.467Z,86.55
2019-01-04T12:31:33.787Z,86.46
2019-01-04T12:34:03.074Z,86.40
2019-01-04T12:36:32.277Z,86.47
2019-01-04T12:39:01.453Z,86.37
2019-01-04T12:41:31.125Z,86.33
2019-01-04T12:44:00.383Z,86.29
2019-01-04T12:49:24.967Z,86.17
2019-01-04T12:51:54.217Z,86.38
2019-01-04T12:54:23.399Z,86.61
2019-01-04T12:56:52.828Z,86.64
2019-01-04T13:02:10.577Z,86.51
2019-01-04T13:04:39.766Z,86.51
2019-01-04T13:07:09.005Z,86.51
2019-01-04T13:09:38.343Z,86.51
2019-01-04T13:12:07.550Z,86.53
2019-01-04T13:14:36.756Z,86.48
2019-01-04T13:17:06.394Z,86.59
2019-01-04T13:19:35.955Z,86.55
2019-01-04T13:22:05.159Z,86.56
2019-01-04T13:24:53.561Z,86.60
2019-01-04T13:27:22.776Z,86.60
2019-01-04T13:29:51.977Z,86.70
2019-01-04T13:32:21.527Z,86.72
2019-01-04T13:35:09.639Z,86.76
2019-01-04T13:37:39.077Z,86.77
2019-01-04T13:40:08.294Z,86.80
2019-01-04T13:42:37.576Z,86.75
2019-01-04T13:45:07.798Z,86.75
2019-01-04T13:47:36.982Z,86.77
2019-01-04T13:50:06.912Z,86.86
2019-01-04T13:52:55.146Z,86.89
2019-01-04T13:55:24.342Z,86.87
2019-01-04T13:58:12.661Z,86.86
2019-01-04T14:00:41.877Z,86.92
2019-01-04T14:03:11.066Z,86.92
2019-01-04T14:05:40.489Z,86.86
2019-01-04T14:11:18.922Z,86.96
2019-01-04T14:13:48.136Z,86.79
2019-01-04T14:16:17.352Z,86.80
2019-01-04T14:21:28.983Z,86.99
2019-01-04T14:23:58.223Z,86.97
2019-01-04T14:26:27.429Z,87.01
2019-01-04T14:28:56.833Z,86.98
2019-01-04T14:31:26.062Z,87.00
2019-01-04T14:33:55.418Z,87.08
2019-01-04T14:36:24.859Z,87.01
2019-01-04T14:38:54.124Z,87.04
2019-01-04T14:41:23.521Z,87.01
2019-01-04T14:43:53.031Z,87.23
2019-01-04T14:46:22.289Z,87.08
2019-01-04T14:48:51.520Z,87.03
2019-01-04T14:51:20.860Z,86.97
2019-01-04T14:53:50.111Z,87.01
2019-01-04T14:56:19.326Z,87.01
2019-01-04T14:58:48.592Z,87.00
2019-01-04T15:01:17.838Z,86.95
2019-01-04T15:03:47.026Z,86.93
2019-01-04T15:06:16.393Z,86.93
2019-01-04T15:11:20.095Z,86.88
2019-01-04T15:13:49.315Z,86.78
2019-01-04T15:16:18.512Z,86.74
2019-01-04T15:18:48.348Z,86.86
2019-01-04T15:21:17.582Z,86.91
2019-01-04T15:23:46.783Z,86.93
2019-01-04T15:26:16.068Z,86.95
2019-01-04T15:28:45.385Z,86.95
2019-01-04T15:31:14.574Z,86.84
2019-01-04T15:36:32.273Z,86.87
2019-01-04T15:39:01.573Z,86.84
2019-01-04T15:41:30.824Z,86.82
2019-01-04T15:46:34.748Z,86.75
2019-01-04T15:49:22.989Z,86.79
2019-01-04T15:51:52.461Z,86.79
2019-01-04T15:54:21.718Z,86.70
2019-01-04T15:56:50.961Z,86.69
2019-01-04T15:59:20.371Z,86.73
2019-01-04T16:01:49.576Z,86.76
2019-01-04T16:04:18.810Z,86.71
2019-01-04T16:06:48.261Z,86.74
2019-01-04T16:09:17.458Z,86.75
2019-01-04T16:11:46.737Z,86.72
2019-01-04T16:17:04.310Z,86.78
2019-01-04T16:19:33.563Z,86.80
2019-01-04T16:22:02.756Z,86.84
2019-01-04T16:24:32.205Z,86.87
2019-01-04T16:27:01.401Z,86.94
2019-01-04T16:29:30.618Z,86.92
2019-01-04T16:32:00.125Z,86.90
2019-01-04T16:34:29.366Z,86.86
2019-01-04T16:36:58.992Z,86.81
2019-01-04T16:39:28.417Z,86.85
2019-01-04T16:41:57.668Z,86.81
2019-01-04T16:44:46.047Z,86.75
2019-01-04T16:47:15.249Z,86.74
2019-01-04T16:49:44.457Z,86.69
2019-01-04T16:52:13.772Z,86.64
2019-01-04T16:55:01.884Z,86.66
2019-01-04T16:57:50.393Z,86.69
2019-01-04T17:00:19.606Z,86.60
2019-01-04T17:02:48.802Z,86.54
2019-01-04T17:07:53.728Z,86.51
2019-01-04T17:10:22.950Z,86.80
2019-01-04T17:12:52.151Z,86.87
2019-01-04T17:15:21.781Z,86.97
2019-01-04T17:17:51.110Z,87.06
2019-01-04T17:20:20.312Z,87.07
2019-01-04T17:22:49.704Z,87.11
2019-01-04T17:25:38.019Z,87.18
2019-01-04T17:28:07.430Z,87.24
2019-01-04T17:30:36.628Z,87.27
2019-01-04T17:33:07.913Z,87.29
2019-01-04T17:35:37.382Z,87.35
2019-01-04T17:38:06.671Z,87.39
2019-01-04T17:40:35.903Z,87.42
2019-01-04T17:43:24.115Z,87.38
2019-01-04T17:48:47.273Z,87.43
2019-01-04T17:51:16.498Z,87.39
2019-01-04T17:53:46.299Z,87.37
2019-01-04T17:56:15.581Z,87.36
2019-01-04T17:58:44.828Z,87.43
2019-01-04T18:01:14.042Z,87.44
2019-01-04T18:03:43.487Z,87.46
2019-01-04T18:06:12.959Z,87.51
2019-01-04T18:08:42.159Z,87.50
2019-01-04T18:11:11.456Z,87.55
2019-01-04T18:13:40.677Z,87.51
2019-01-04T18:16:09.890Z,87.48
2019-01-04T18:18:39.262Z,87.51
2019-01-04T18:21:08.506Z,87.53
2019-01-04T18:23:56.847Z,87.55
2019-01-04T18:26:26.139Z,87.56
2019-01-04T18:29:14.494Z,87.51
2019-01-04T18:31:43.765Z,87.52
2019-01-04T18:34:12.955Z,87.53
2019-01-04T18:36:42.394Z,87.57
2019-01-04T18:39:11.695Z,87.58
2019-01-04T18:41:40.893Z,87.65
2019-01-04T18:44:10.155Z,87.65
2019-01-04T18:47:00.800Z,87.72
2019-01-04T18:49:30.088Z,87.75
2019-01-04T18:51:59.284Z,87.69
2019-01-04T18:54:28.507Z,87.75
2019-01-04T18:56:58.095Z,87.76
2019-01-04T18:59:27.283Z,87.76
2019-01-04T19:01:56.595Z,87.78
2019-01-04T19:04:44.863Z,87.75
2019-01-04T19:09:54.023Z,87.73
2019-01-04T19:12:23.256Z,87.71
2019-01-04T19:17:59.791Z,87.74
2019-01-04T19:20:47.920Z,87.70
2019-01-04T19:23:17.226Z,87.62
2019-01-04T19:28:34.860Z,87.63
2019-01-04T19:31:04.065Z,87.61
2019-01-04T19:33:33.246Z,87.60
2019-01-04T19:36:02.670Z,87.62
2019-01-04T19:38:32.366Z,87.62
2019-01-04T19:41:01.658Z,87.67
2019-01-04T19:43:30.988Z,87.72
2019-01-04T19:46:19.255Z,87.74
2019-01-04T19:48:48.718Z,87.80
2019-01-04T19:51:17.919Z,87.75
2019-01-04T19:53:47.144Z,87.80
2019-01-04T19:56:16.614Z,87.81
2019-01-04T19:58:46.184Z,87.83
2019-01-04T20:04:22.711Z,87.88
2019-01-04T20:07:48.872Z,87.85
2019-01-04T20:11:15.154Z,87.75
2019-01-04T20:14:41.316Z,87.61
2019-01-04T20:17:29.569Z,87.51
2019-01-04T20:23:12.129Z,87.39
2019-01-04T20:26:19.239Z,87.40
2019-01-04T20:29:07.586Z,87.40
2019-01-04T20:31:51.474Z,87.28
2019-01-04T20:34:39.777Z,87.25
2019-01-04T20:37:27.895Z,87.25
2019-01-04T20:40:16.290Z,87.23
2019-01-04T20:42:55.373Z,87.19
2019-01-04T20:45:43.689Z,87.27
2019-01-04T20:48:31.854Z,87.37
2019-01-04T20:51:20.461Z,87.49
2019-01-04T20:54:08.585Z,87.42
2019-01-04T20:56:57.151Z,87.47
2019-01-04T20:59:45.263Z,87.66
2019-01-04T21:02:33.522Z,87.82
2019-01-04T21:05:21.649Z,87.91
2019-01-04T21:08:09.929Z,87.95
2019-01-04T21:10:58.037Z,87.96
2019-01-04T21:13:46.707Z,88.06
2019-01-04T21:16:34.781Z,88.07
2019-01-04T21:19:23.199Z,88.11
2019-01-04T21:22:11.318Z,88.10
2019-01-04T21:25:00.353Z,88.08
2019-01-04T21:28:00.384Z,88.08
2019-01-04T21:30:48.827Z,88.05
2019-01-04T21:33:36.939Z,88.00
2019-01-04T21:36:25.262Z,87.98
2019-01-04T21:39:13.426Z,87.93
2019-01-04T21:42:01.838Z,87.93
2019-01-04T21:44:50.028Z,87.89
2019-01-04T21:50:20.409Z,87.88
2019-01-04T21:53:20.445Z,87.87
2019-01-04T21:56:08.740Z,87.91
2019-01-04T21:58:56.889Z,87.86
2019-01-04T22:01:45.219Z,87.82
2019-01-04T22:04:33.331Z,87.83
2019-01-04T22:07:21.799Z,87.84
2019-01-04T22:10:28.908Z,87.85
2019-01-04T22:13:17.313Z,87.79
2019-01-04T22:16:14.477Z,87.76
2019-01-04T22:19:02.765Z,87.79
2019-01-04T22:21:50.894Z,87.77
2019-01-04T22:24:39.410Z,87.80
2019-01-04T22:30:21.145Z,87.82
2019-01-04T22:33:09.308Z,87.79
2019-01-04T22:35:57.655Z,87.78
2019-01-04T22:38:45.783Z,87.76
2019-01-04T22:41:34.293Z,87.75
2019-01-04T22:44:17.644Z,87.77
2019-01-04T22:47:06.344Z,87.74
2019-01-04T22:49:54.451Z,87.76
2019-01-04T22:53:03.960Z,87.76
2019-01-04T22:55:52.081Z,87.78
2019-01-04T22:58:40.449Z,87.75
2019-01-04T23:01:28.667Z,87.75
2019-01-04T23:04:17.043Z,87.75
2019-01-04T23:07:05.140Z,87.76
2019-01-04T23:09:53.362Z,87.75
2019-01-04T23:12:41.523Z,87.81
2019-01-04T23:15:29.803Z,87.77
2019-01-04T23:18:17.928Z,87.74
2019-01-04T23:21:06.402Z,87.72
2019-01-04T23:23:54.793Z,87.69
2019-01-04T23:26:42.966Z,87.71
2019-01-04T23:29:23.771Z,87.70
2019-01-04T23:32:30.992Z,87.66
2019-01-04T23:35:19.223Z,87.60
2019-01-04T23:38:07.363Z,87.61
2019-01-04T23:43:56.655Z,87.52
2019-01-04T23:46:44.882Z,87.48
2019-01-04T23:49:38.741Z,87.38
2019-01-04T23:52:26.839Z,87.26
2019-01-04T23:55:15.088Z,87.15
2019-01-04T23:58:03.200Z,87.13
